Time;durP1;ratioP1;P1;durP2;ratioP2;P2;SDS_P1;SDS_P2;PMS_P1;PMS_P2;Temp;Humidity;BMP_temperature;BMP_pressure;BME280_temperature;BME280_humidity;BME280_pressure;Samples;Min_cycle;Max_cycle;Signal;HPM_P1;HPM_P2
2023/07/03 00:00:45;;;;;;;;;3.67;3.00;;;;;;;;2052477;27;2736720;-80
2023/07/03 00:01:55;;;;;;;;;3.00;3.00;;;;;;;;2036634;27;2737785;-80
2023/07/03 00:03:06;;;;;;;;;2.67;2.67;;;;;;;;2059881;27;2739864;-80
2023/07/03 00:04:17;;;;;;;;;3.00;3.00;;;;;;;;2036518;27;3454555;-78
2023/07/03 00:05:27;;;;;;;;;3.67;3.00;;;;;;;;2041975;27;3465893;-77
2023/07/03 00:06:38;;;;;;;;;4.00;3.00;;;;;;;;2051226;27;2744440;-77
2023/07/03 00:07:49;;;;;;;;;3.67;2.67;;;;;;;;2061304;27;2737792;-77
2023/07/03 00:09:03;;;;;;;;;6.00;3.00;;;;;;;;2068856;27;2733622;-77
2023/07/03 00:10:14;;;;;;;;;4.67;3.00;;;;;;;;2043762;27;2751407;-77
2023/07/03 00:11:24;;;;;;;;;5.00;3.33;;;;;;;;2032407;27;3462737;-77
2023/07/03 00:12:35;;;;;;;;;5.00;2.00;;;;;;;;2061866;27;2724222;-77
2023/07/03 00:13:46;;;;;;;;;4.33;4.00;;;;;;;;2042193;27;2746199;-78
2023/07/03 00:14:57;;;;;;;;;6.00;5.00;;;;;;;;2056340;27;2748189;-78
2023/07/03 00:16:07;;;;;;;;;9.00;6.00;;;;;;;;2047705;27;3455485;-78
2023/07/03 00:17:19;;;;;;;;;8.50;6.75;;;;;;;;2068575;27;2729455;-78
2023/07/03 00:18:30;;;;;;;;;10.33;5.00;;;;;;;;2042122;27;3482560;-79
2023/07/03 00:19:42;;;;;;;;;2.00;2.00;;;;;;;;2070091;27;2730498;-78
2023/07/03 00:20:54;;;;;;;;;7.67;5.00;;;;;;;;2015145;27;2745053;-78
2023/07/03 00:22:04;;;;;;;;;7.33;6.00;;;;;;;;2057244;27;1815914;-78
2023/07/03 00:23:15;;;;;;;;;6.33;6.33;;;;;;;;2027329;27;2741996;-77
2023/07/03 00:24:28;;;;;;;;;4.00;3.00;;;;;;;;2045540;27;2744078;-77
2023/07/03 00:25:38;;;;;;;;;6.00;6.00;;;;;;;;2036160;27;2746120;-77
2023/07/03 00:26:49;;;;;;;;;8.67;5.00;;;;;;;;2059871;27;3466380;-77
2023/07/03 00:28:00;;;;;;;;;7.67;5.67;;;;;;;;2053848;27;2752470;-77
2023/07/03 00:29:11;;;;;;;;;8.33;6.67;;;;;;;;2056792;27;3456529;-77
2023/07/03 00:30:22;;;;;;;;;5.00;5.00;;;;;;;;2061097;27;2749243;-77
2023/07/03 00:31:32;;;;;;;;;7.67;5.00;;;;;;;;2065032;27;1819032;-77
2023/07/03 00:32:43;;;;;;;;;9.00;5.33;;;;;;;;2035265;27;2748251;-79
2023/07/03 00:33:54;;;;;;;;;6.67;6.00;;;;;;;;2062681;27;2741927;-79
2023/07/03 00:35:06;;;;;;;;;8.00;5.00;;;;;;;;2061973;27;2745049;-78
2023/07/03 00:36:17;;;;;;;;;6.00;6.00;;;;;;;;2043396;27;3436687;-81
2023/07/03 00:37:28;;;;;;;;;7.67;5.00;;;;;;;;2045505;27;3460774;-80
2023/07/03 00:38:38;;;;;;;;;8.00;7.00;;;;;;;;2056706;27;2728506;-80
2023/07/03 00:39:49;;;;;;;;;6.00;6.00;;;;;;;;2060231;27;2740340;-80
2023/07/03 00:41:00;;;;;;;;;9.00;8.00;;;;;;;;2061058;27;3468490;-79
2023/07/03 00:42:12;;;;;;;;;30.20;22.00;;;;;;;;2068179;27;3589779;-79
2023/07/03 00:43:25;;;;;;;;;31.20;26.60;;;;;;;;2043985;27;3589790;-79
2023/07/03 00:44:36;;;;;;;;;25.67;19.33;;;;;;;;2012550;27;3584625;-79
2023/07/03 00:45:48;;;;;;;;;29.40;27.60;;;;;;;;2039507;27;3587698;-79
2023/07/03 00:47:03;;;;;;;;;30.00;26.25;;;;;;;;2038120;27;3585633;-79
2023/07/03 00:48:14;;;;;;;;;29.50;24.50;;;;;;;;2041514;27;2847124;-79
2023/07/03 00:49:26;;;;;;;;;33.00;24.40;;;;;;;;2026051;27;3595374;-79
2023/07/03 00:50:37;;;;;;;;;48.00;37.20;;;;;;;;2047890;27;3590831;-79
2023/07/03 00:51:51;;;;;;;;;50.20;41.00;;;;;;;;2041978;27;3604374;-79
2023/07/03 00:53:03;;;;;;;;;52.00;36.50;;;;;;;;2019278;27;2873141;-79
2023/07/03 00:54:14;;;;;;;;;25.00;21.67;;;;;;;;2017424;27;3574150;-79
2023/07/03 00:55:27;;;;;;;;;33.00;26.40;;;;;;;;2042820;27;3601233;-79
2023/07/03 00:56:38;;;;;;;;;15.50;13.00;;;;;;;;2025270;27;2805506;-79
2023/07/03 00:57:49;;;;;;;;;10.00;7.50;;;;;;;;2015668;27;2756483;-79
2023/07/03 00:59:02;;;;;;;;;8.20;5.00;;;;;;;;2069074;27;2745092;-79
2023/07/03 01:00:13;;;;;;;;;6.00;3.00;;;;;;;;2013419;27;2738811;-79
2023/07/03 01:01:26;;;;;;;;;10.00;3.33;;;;;;;;2047115;27;3482547;-79
2023/07/03 01:03:02;;;;;;;;;1.50;0.33;;;;;;;;2066286;27;2731885;-79
2023/07/03 01:04:15;;;;;;;;;4.33;4.00;;;;;;;;2017964;27;2746097;-79
2023/07/03 01:05:28;;;;;;;;;5.00;3.00;;;;;;;;2031918;27;2754447;-79
2023/07/03 01:06:51;;;;;;;;;5.00;4.00;;;;;;;;2035250;27;3464277;-79
2023/07/03 01:08:01;;;;;;;;;6.00;3.67;;;;;;;;2043152;27;2747610;-79
2023/07/03 01:09:14;;;;;;;;;2.67;2.00;;;;;;;;2068567;27;2741956;-79
2023/07/03 01:10:25;;;;;;;;;5.00;3.00;;;;;;;;2019306;27;2747651;-79
2023/07/03 01:11:36;;;;;;;;;6.00;2.33;;;;;;;;2044067;27;2740882;-79
2023/07/03 01:12:49;;;;;;;;;3.00;3.00;;;;;;;;2043083;27;2750357;-79
2023/07/03 01:14:03;;;;;;;;;5.33;4.50;;;;;;;;2069828;27;2739875;-80
2023/07/03 01:15:19;;;;;;;;;5.50;3.00;;;;;;;;2045660;27;2744057;-78
2023/07/03 01:16:33;;;;;;;;;3.17;2.83;;;;;;;;2046512;27;2745060;-77
2023/07/03 01:17:44;;;;;;;;;4.33;4.00;;;;;;;;2019716;27;2751366;-77
2023/07/03 01:18:54;;;;;;;;;5.00;5.00;;;;;;;;2043211;27;2752443;-77
2023/07/03 01:20:06;;;;;;;;;11.00;4.33;;;;;;;;2053620;27;3504453;-78
2023/07/03 01:21:19;;;;;;;;;6.67;4.00;;;;;;;;2042872;27;2752957;-76
2023/07/03 01:22:29;;;;;;;;;6.67;5.33;;;;;;;;2038300;27;3456503;-76
2023/07/03 01:23:53;;;;;;;;;7.33;4.67;;;;;;;;2066502;27;3459608;-75
2023/07/03 01:25:08;;;;;;;;;4.00;4.00;;;;;;;;2042876;27;2745157;-75
2023/07/03 01:26:20;;;;;;;;;4.67;4.33;;;;;;;;2043841;27;2750290;-75
2023/07/03 01:27:32;;;;;;;;;5.33;5.33;;;;;;;;2034133;27;2739935;-76
2023/07/03 01:28:44;;;;;;;;;4.67;3.33;;;;;;;;2035614;27;2754516;-76
2023/07/03 01:29:56;;;;;;;;;4.00;3.00;;;;;;;;2032129;27;2746114;-76
2023/07/03 01:31:07;;;;;;;;;3.67;3.33;;;;;;;;2031551;27;2745138;-78
2023/07/03 01:32:22;;;;;;;;;3.67;3.67;;;;;;;;2040094;27;2754610;-78
2023/07/03 01:33:34;;;;;;;;;5.33;4.00;;;;;;;;2037371;27;2754498;-78
2023/07/03 01:34:48;;;;;;;;;5.00;4.00;;;;;;;;2043381;27;2738863;-78
2023/07/03 01:35:59;;;;;;;;;5.00;4.00;;;;;;;;2042873;27;3461702;-78
2023/07/03 01:37:10;;;;;;;;;6.00;3.00;;;;;;;;2043371;27;2739886;-78
2023/07/03 01:38:21;;;;;;;;;4.00;4.00;;;;;;;;2034311;27;2754494;-77
2023/07/03 01:39:32;;;;;;;;;5.00;3.33;;;;;;;;2035106;27;2746256;-78
2023/07/03 01:40:43;;;;;;;;;4.00;4.00;;;;;;;;2043352;27;2746181;-77
2023/07/03 01:41:55;;;;;;;;;5.00;3.67;;;;;;;;2052594;27;3457528;-78
2023/07/03 01:43:06;;;;;;;;;4.33;3.33;;;;;;;;2042789;27;3470381;-77
2023/07/03 01:44:19;;;;;;;;;4.00;3.00;;;;;;;;2069259;27;2737770;-78
2023/07/03 01:45:32;;;;;;;;;8.33;5.00;;;;;;;;2020080;27;2742427;-78
2023/07/03 01:46:42;;;;;;;;;4.33;4.00;;;;;;;;2042948;27;2752411;-78
2023/07/03 01:47:54;;;;;;;;;4.00;3.00;;;;;;;;2066485;27;2745057;-78
2023/07/03 01:49:10;;;;;;;;;6.00;5.00;;;;;;;;2053524;27;2746085;-78
2023/07/03 01:50:22;;;;;;;;;5.00;4.00;;;;;;;;2039759;27;3470059;-78
2023/07/03 01:51:37;;;;;;;;;6.67;4.33;;;;;;;;2043124;27;2744070;-78
2023/07/03 01:52:54;;;;;;;;;4.33;3.00;;;;;;;;2034554;27;2745064;-78
2023/07/03 01:54:09;;;;;;;;;3.33;3.33;;;;;;;;2035719;27;3455448;-78
2023/07/03 01:55:35;;;;;;;;;3.00;3.00;;;;;;;;2043664;27;2731527;-78
2023/07/03 01:56:49;;;;;;;;;5.00;3.33;;;;;;;;2034386;27;2741928;-78
2023/07/03 01:58:04;;;;;;;;;5.00;3.00;;;;;;;;2025893;28;3462744;-78
2023/07/03 01:59:20;;;;;;;;;3.67;3.67;;;;;;;;2055241;27;2740882;-78
2023/07/03 02:00:40;;;;;;;;;3.00;2.50;;;;;;;;2030968;27;2725838;-78
2023/07/03 02:02:00;;;;;;;;;4.67;4.67;;;;;;;;2012349;27;2745072;-78
2023/07/03 02:03:22;;;;;;;;;4.33;4.00;;;;;;;;2043439;27;2741967;-78
2023/07/03 02:04:57;;;;;;;;;4.00;3.67;;;;;;;;2043031;27;2750316;-78
2023/07/03 02:06:17;;;;;;;;;4.67;3.67;;;;;;;;2042673;27;3470015;-78
2023/07/03 02:07:30;;;;;;;;;3.00;3.00;;;;;;;;2069050;27;2746083;-78
2023/07/03 02:08:41;;;;;;;;;6.00;5.00;;;;;;;;2019717;27;2754517;-78
2023/07/03 02:09:51;;;;;;;;;3.00;3.00;;;;;;;;2048640;27;2740349;-78
2023/07/03 02:11:02;;;;;;;;;3.67;3.33;;;;;;;;2058614;27;2748294;-78
2023/07/03 02:12:13;;;;;;;;;5.00;2.67;;;;;;;;2063694;27;2742969;-78
2023/07/03 02:13:25;;;;;;;;;4.60;2.00;;;;;;;;2051392;27;2748166;-78
2023/07/03 02:14:36;;;;;;;;;4.33;4.33;;;;;;;;2012842;27;2752355;-81
2023/07/03 02:15:47;;;;;;;;;3.00;3.00;;;;;;;;2064704;27;2754781;-78
2023/07/03 02:16:57;;;;;;;;;4.33;3.00;;;;;;;;2058445;27;2729429;-77
2023/07/03 02:18:17;;;;;;;;;5.80;3.80;;;;;;;;2046262;27;2746158;-76
2023/07/03 02:19:32;;;;;;;;;3.33;2.67;;;;;;;;2037573;27;2748174;-76
2023/07/03 02:20:46;;;;;;;;;4.67;4.33;;;;;;;;2018553;27;2752484;-78
2023/07/03 02:21:56;;;;;;;;;4.00;4.00;;;;;;;;2039502;27;2746104;-77
2023/07/03 02:23:07;;;;;;;;;2.33;2.00;;;;;;;;2059779;27;2731622;-77
2023/07/03 02:24:17;;;;;;;;;4.67;2.67;;;;;;;;2039510;27;2742973;-77
2023/07/03 02:25:28;;;;;;;;;7.00;4.00;;;;;;;;2062183;27;2752371;-77
2023/07/03 02:26:40;;;;;;;;;3.00;3.00;;;;;;;;2067682;27;2746102;-77
2023/07/03 02:27:53;;;;;;;;;4.00;3.00;;;;;;;;2034772;27;2737829;-77
2023/07/03 02:29:03;;;;;;;;;5.00;3.67;;;;;;;;2027391;27;2744043;-77
2023/07/03 02:30:14;;;;;;;;;7.00;4.33;;;;;;;;2055818;27;2745066;-77
2023/07/03 02:31:25;;;;;;;;;9.33;4.67;;;;;;;;2053896;27;3482534;-77
2023/07/03 02:32:37;;;;;;;;;6.00;4.67;;;;;;;;2061962;27;2754428;-77
2023/07/03 02:33:47;;;;;;;;;3.00;3.00;;;;;;;;2041404;27;2742599;-77
2023/07/03 02:34:58;;;;;;;;;2.67;2.00;;;;;;;;2066883;27;2741939;-77
2023/07/03 02:36:08;;;;;;;;;4.67;3.67;;;;;;;;2041107;27;2754545;-77
2023/07/03 02:37:19;;;;;;;;;6.00;5.67;;;;;;;;2065552;27;2748224;-77
2023/07/03 02:38:30;;;;;;;;;5.00;3.33;;;;;;;;2063192;27;2749247;-77
2023/07/03 02:39:41;;;;;;;;;3.67;3.67;;;;;;;;2046759;27;2740408;-78
2023/07/03 02:40:52;;;;;;;;;5.00;3.33;;;;;;;;2058774;27;2743006;-78
2023/07/03 02:42:02;;;;;;;;;3.00;2.67;;;;;;;;2035638;27;2736786;-78
2023/07/03 02:43:14;;;;;;;;;3.00;3.00;;;;;;;;2074440;27;1818621;-78
2023/07/03 02:44:24;;;;;;;;;4.33;4.00;;;;;;;;2016539;27;2754528;-78
2023/07/03 02:45:38;;;;;;;;;4.67;4.67;;;;;;;;2060536;27;2738807;-77
2023/07/03 02:46:49;;;;;;;;;7.00;5.00;;;;;;;;2035008;27;2752407;-78
2023/07/03 02:48:00;;;;;;;;;5.00;3.33;;;;;;;;2060261;27;2744024;-78
2023/07/03 02:49:10;;;;;;;;;4.67;2.00;;;;;;;;2043721;27;2746117;-77
2023/07/03 02:50:21;;;;;;;;;4.00;4.00;;;;;;;;2046747;27;2750285;-77
2023/07/03 02:51:32;;;;;;;;;3.00;3.00;;;;;;;;2067042;27;2740910;-78
2023/07/03 02:52:42;;;;;;;;;4.00;4.00;;;;;;;;2042032;27;2752472;-78
2023/07/03 02:53:53;;;;;;;;;6.67;3.00;;;;;;;;2067058;27;2736756;-78
2023/07/03 02:55:06;;;;;;;;;6.00;5.20;;;;;;;;2067673;27;2752388;-78
2023/07/03 02:56:16;;;;;;;;;5.00;4.67;;;;;;;;2021124;27;2752395;-78
2023/07/03 02:57:28;;;;;;;;;3.00;3.00;;;;;;;;2067802;27;2726322;-78
2023/07/03 02:58:38;;;;;;;;;9.00;5.00;;;;;;;;2042712;27;2757064;-78
2023/07/03 02:59:49;;;;;;;;;8.00;3.67;;;;;;;;2059981;27;2753456;-78
2023/07/03 03:01:01;;;;;;;;;4.00;3.67;;;;;;;;2055495;27;2746114;-78
2023/07/03 03:02:11;;;;;;;;;6.00;5.00;;;;;;;;2042721;27;2742041;-79
2023/07/03 03:03:22;;;;;;;;;4.00;4.00;;;;;;;;2054779;27;2754630;-78
2023/07/03 03:04:34;;;;;;;;;4.25;4.25;;;;;;;;2059467;27;2738831;-78
2023/07/03 03:05:44;;;;;;;;;6.00;4.67;;;;;;;;2040981;27;3458589;-77
2023/07/03 03:06:55;;;;;;;;;5.67;3.00;;;;;;;;2064370;27;2747233;-77
2023/07/03 03:08:07;;;;;;;;;2.67;2.67;;;;;;;;2069352;27;2720065;-77
2023/07/03 03:09:17;;;;;;;;;3.00;3.00;;;;;;;;2042862;27;2744003;-77
2023/07/03 03:10:28;;;;;;;;;5.33;4.00;;;;;;;;2066920;27;2754559;-76
2023/07/03 03:11:39;;;;;;;;;5.00;3.00;;;;;;;;2062775;27;2752982;-75
2023/07/03 03:12:50;;;;;;;;;5.00;3.33;;;;;;;;2058731;27;2732906;-75
2023/07/03 03:14:01;;;;;;;;;5.67;4.33;;;;;;;;2032126;27;3468303;-76
2023/07/03 03:15:11;;;;;;;;;5.33;5.33;;;;;;;;2056378;27;2746103;-77
2023/07/03 03:16:23;;;;;;;;;4.00;4.00;;;;;;;;2059952;27;2754901;-78
2023/07/03 03:17:33;;;;;;;;;7.00;5.00;;;;;;;;2042533;27;2742029;-76
2023/07/03 03:18:47;;;;;;;;;6.00;5.00;;;;;;;;2064738;27;3459615;-77
2023/07/03 03:20:00;;;;;;;;;4.50;4.00;;;;;;;;2068842;27;2735675;-76
2023/07/03 03:21:10;;;;;;;;;8.00;5.67;;;;;;;;2017483;27;2750323;-78
2023/07/03 03:22:21;;;;;;;;;4.00;4.00;;;;;;;;2057146;27;2754448;-77
2023/07/03 03:23:32;;;;;;;;;6.67;5.00;;;;;;;;2046005;27;2747145;-77
2023/07/03 03:24:43;;;;;;;;;6.00;4.67;;;;;;;;2049406;27;3460665;-78
2023/07/03 03:25:54;;;;;;;;;5.67;4.00;;;;;;;;2063218;27;3470155;-78
2023/07/03 03:27:08;;;;;;;;;6.33;4.33;;;;;;;;2062995;27;2752436;-78
2023/07/03 03:28:18;;;;;;;;;4.67;4.67;;;;;;;;2044521;27;2740894;-78
2023/07/03 03:29:29;;;;;;;;;7.33;4.33;;;;;;;;2065721;27;2751786;-78
2023/07/03 03:30:40;;;;;;;;;6.00;5.33;;;;;;;;2064362;27;2748201;-78
2023/07/03 03:31:51;;;;;;;;;4.67;4.67;;;;;;;;2062677;27;2748212;-78
2023/07/03 03:33:02;;;;;;;;;5.00;5.00;;;;;;;;2069278;27;2748190;-78
2023/07/03 03:34:12;;;;;;;;;4.67;4.33;;;;;;;;2042972;27;2752436;-79
2023/07/03 03:35:24;;;;;;;;;6.00;5.00;;;;;;;;2063616;27;3465884;-79
2023/07/03 03:36:38;;;;;;;;;4.25;4.00;;;;;;;;2068149;27;2740917;-78
2023/07/03 03:37:49;;;;;;;;;8.00;3.00;;;;;;;;2036800;27;2756916;-78
2023/07/03 03:38:59;;;;;;;;;6.33;5.00;;;;;;;;2066938;27;2740933;-78
2023/07/03 03:40:10;;;;;;;;;5.33;3.33;;;;;;;;2054231;27;2747139;-78
2023/07/03 03:41:21;;;;;;;;;6.67;5.00;;;;;;;;2051410;27;2746649;-78
2023/07/03 03:42:32;;;;;;;;;6.00;4.67;;;;;;;;2063107;27;3470445;-78
2023/07/03 03:43:45;;;;;;;;;8.67;6.00;;;;;;;;2062588;27;2750326;-78
2023/07/03 03:44:55;;;;;;;;;6.00;5.00;;;;;;;;2043743;27;2746208;-79
2023/07/03 03:46:07;;;;;;;;;7.67;4.33;;;;;;;;2064795;27;3466226;-79
2023/07/03 03:47:20;;;;;;;;;5.33;5.33;;;;;;;;2044241;27;2739900;-79
2023/07/03 03:48:30;;;;;;;;;7.33;6.00;;;;;;;;2056766;27;1815348;-80
2023/07/03 03:49:41;;;;;;;;;10.33;4.67;;;;;;;;2024867;27;3486722;-79
2023/07/03 03:50:52;;;;;;;;;7.00;5.00;;;;;;;;2061763;27;3455462;-80
2023/07/03 03:52:03;;;;;;;;;8.00;6.00;;;;;;;;2047400;27;2742985;-79
2023/07/03 03:53:14;;;;;;;;;8.00;5.00;;;;;;;;2057860;27;2750919;-79
2023/07/03 03:54:27;;;;;;;;;9.33;4.00;;;;;;;;2074341;27;1822149;-79
2023/07/03 03:55:37;;;;;;;;;8.67;4.00;;;;;;;;2019868;27;2754509;-78
2023/07/03 03:56:48;;;;;;;;;9.33;7.67;;;;;;;;2067117;27;2751372;-77
2023/07/03 03:57:59;;;;;;;;;8.00;5.00;;;;;;;;2060508;27;3463777;-78
2023/07/03 03:59:10;;;;;;;;;7.00;4.00;;;;;;;;2064352;27;2742982;-78
2023/07/03 04:00:21;;;;;;;;;8.00;4.67;;;;;;;;2063332;27;3458955;-78
2023/07/03 04:01:33;;;;;;;;;6.33;6.33;;;;;;;;2046934;27;3465885;-78
2023/07/03 04:02:46;;;;;;;;;5.00;5.00;;;;;;;;2067857;27;2747888;-78
2023/07/03 04:03:56;;;;;;;;;5.33;5.00;;;;;;;;2020185;27;2746178;-79
2023/07/03 04:05:08;;;;;;;;;6.33;5.00;;;;;;;;2066807;27;3460671;-79
2023/07/03 04:06:18;;;;;;;;;7.33;6.00;;;;;;;;2068949;27;2745087;-79
2023/07/03 04:07:31;;;;;;;;;7.00;4.00;;;;;;;;2051611;27;2752344;-79
2023/07/03 04:08:42;;;;;;;;;5.67;5.67;;;;;;;;2013576;27;2739844;-79
2023/07/03 04:09:52;;;;;;;;;6.67;5.00;;;;;;;;2042568;27;2743019;-79
2023/07/03 04:11:03;;;;;;;;;7.00;5.00;;;;;;;;2059623;27;2751338;-79
2023/07/03 04:12:14;;;;;;;;;8.00;5.00;;;;;;;;2065004;27;2745038;-79
2023/07/03 04:13:25;;;;;;;;;6.00;5.00;;;;;;;;2069292;27;2739875;-79
2023/07/03 04:14:37;;;;;;;;;4.33;3.00;;;;;;;;2043198;27;2741975;-80
2023/07/03 04:15:57;;;;;;;;;3.33;3.33;;;;;;;;2044170;27;2745040;-79
2023/07/03 04:17:08;;;;;;;;;7.67;5.67;;;;;;;;2043684;27;2750321;-80
2023/07/03 04:18:19;;;;;;;;;7.00;5.33;;;;;;;;2043054;27;2741967;-79
2023/07/03 04:19:30;;;;;;;;;4.33;4.00;;;;;;;;2038388;27;2746098;-79
2023/07/03 04:20:41;;;;;;;;;6.67;5.67;;;;;;;;2066383;27;2743072;-77
2023/07/03 04:21:51;;;;;;;;;8.67;5.00;;;;;;;;2065192;27;1820033;-78
2023/07/03 04:23:02;;;;;;;;;9.00;6.00;;;;;;;;2027556;27;3463781;-79
2023/07/03 04:24:13;;;;;;;;;8.67;6.00;;;;;;;;2055698;27;3456526;-83
2023/07/03 04:25:24;;;;;;;;;5.00;4.00;;;;;;;;2048867;27;3468293;-83
2023/07/03 04:26:38;;;;;;;;;5.00;4.67;;;;;;;;2057269;27;3459643;-82
2023/07/03 04:27:48;;;;;;;;;4.33;4.33;;;;;;;;2043569;27;2754514;-83
2023/07/03 04:28:59;;;;;;;;;6.33;5.00;;;;;;;;2061514;27;2746148;-83
2023/07/03 04:30:10;;;;;;;;;5.33;4.00;;;;;;;;2055937;27;3465846;-86
2023/07/03 04:31:21;;;;;;;;;6.00;5.00;;;;;;;;2045609;27;2745071;-86
2023/07/03 04:32:32;;;;;;;;;5.67;4.00;;;;;;;;2060812;27;3470031;-86
2023/07/03 04:33:45;;;;;;;;;9.00;6.67;;;;;;;;2039130;27;2748598;-86
2023/07/03 04:34:57;;;;;;;;;6.67;4.67;;;;;;;;2025306;27;3465995;-79
2023/07/03 04:36:11;;;;;;;;;9.33;7.33;;;;;;;;2028869;27;3477304;-79
2023/07/03 04:37:26;;;;;;;;;9.00;4.67;;;;;;;;2064755;27;2742974;-80
2023/07/03 04:38:36;;;;;;;;;10.67;5.00;;;;;;;;2001941;27;3497159;-80
2023/07/03 04:39:47;;;;;;;;;6.33;5.33;;;;;;;;2044816;27;3459640;-78
2023/07/03 04:40:58;;;;;;;;;13.00;7.00;;;;;;;;2046105;27;3476299;-79
2023/07/03 04:42:13;;;;;;;;;6.67;5.33;;;;;;;;2061418;27;2750320;-79
2023/07/03 04:43:23;;;;;;;;;4.33;4.33;;;;;;;;2043573;27;2747204;-79
2023/07/03 04:44:34;;;;;;;;;4.00;4.00;;;;;;;;2060368;27;2740910;-79
2023/07/03 04:45:46;;;;;;;;;7.67;5.00;;;;;;;;2050646;27;3457552;-79
2023/07/03 04:46:56;;;;;;;;;6.00;4.00;;;;;;;;2035936;27;2744139;-79
2023/07/03 04:48:07;;;;;;;;;5.00;5.00;;;;;;;;2051699;27;2745066;-79
2023/07/03 04:49:18;;;;;;;;;7.50;4.00;;;;;;;;2048657;27;2752756;-79
2023/07/03 04:50:29;;;;;;;;;10.67;7.00;;;;;;;;2057265;27;3492212;-79
2023/07/03 04:51:41;;;;;;;;;7.00;5.67;;;;;;;;2055810;27;2745434;-79
2023/07/03 04:52:52;;;;;;;;;7.33;5.00;;;;;;;;2032164;27;2747189;-79
2023/07/03 04:54:03;;;;;;;;;10.67;5.00;;;;;;;;2045116;27;3490896;-79
2023/07/03 04:55:14;;;;;;;;;6.00;4.33;;;;;;;;2037928;27;3462835;-79
2023/07/03 04:56:25;;;;;;;;;6.67;5.00;;;;;;;;2044607;27;2745203;-79
2023/07/03 04:57:42;;;;;;;;;7.00;6.00;;;;;;;;2043742;27;2740952;-79
2023/07/03 04:58:52;;;;;;;;;4.33;4.33;;;;;;;;2039260;27;2754554;-79
2023/07/03 05:00:07;;;;;;;;;8.00;3.33;;;;;;;;2061291;27;2738932;-79
2023/07/03 05:01:19;;;;;;;;;4.00;4.00;;;;;;;;2039826;27;2750356;-79
2023/07/03 05:02:31;;;;;;;;;8.00;5.00;;;;;;;;2063222;27;2748824;-79
2023/07/03 05:03:42;;;;;;;;;5.33;5.33;;;;;;;;2042337;27;3450327;-79
2023/07/03 05:04:53;;;;;;;;;5.33;5.00;;;;;;;;2063363;27;1808612;-83
2023/07/03 05:06:07;;;;;;;;;6.83;5.00;;;;;;;;2059458;27;2739915;-82
2023/07/03 05:07:22;;;;;;;;;8.00;6.00;;;;;;;;2045565;27;2748181;-82
2023/07/03 05:08:35;;;;;;;;;4.33;3.00;;;;;;;;2042604;27;2740155;-80
2023/07/03 05:09:45;;;;;;;;;4.67;4.67;;;;;;;;2019380;27;2745103;-80
2023/07/03 05:10:56;;;;;;;;;10.00;4.00;;;;;;;;2042863;27;2767961;-81
2023/07/03 05:12:07;;;;;;;;;5.67;3.67;;;;;;;;2046796;27;2752407;-80
2023/07/03 05:13:18;;;;;;;;;7.00;4.00;;;;;;;;2045298;27;2742985;-81
2023/07/03 05:14:29;;;;;;;;;6.67;5.00;;;;;;;;2051566;27;3461737;-83
2023/07/03 05:15:39;;;;;;;;;7.00;5.00;;;;;;;;2062821;27;2748172;-79
2023/07/03 05:16:50;;;;;;;;;7.67;6.00;;;;;;;;2059908;27;2742982;-79
2023/07/03 05:18:01;;;;;;;;;9.00;6.33;;;;;;;;2073076;27;1815886;-80
2023/07/03 05:19:13;;;;;;;;;7.00;6.00;;;;;;;;2056645;27;1817006;-79
2023/07/03 05:20:27;;;;;;;;;8.33;6.83;;;;;;;;2068581;27;2735706;-80
2023/07/03 05:21:37;;;;;;;;;8.33;7.00;;;;;;;;2018429;27;3451270;-80
2023/07/03 05:22:49;;;;;;;;;6.67;4.67;;;;;;;;2061749;27;2748300;-80
2023/07/03 05:24:02;;;;;;;;;8.00;5.00;;;;;;;;2059211;27;2743038;-79
2023/07/03 05:25:15;;;;;;;;;7.83;5.00;;;;;;;;2027447;27;2743014;-79
2023/07/03 05:26:26;;;;;;;;;6.33;6.00;;;;;;;;2011235;27;3456506;-78
2023/07/03 05:27:37;;;;;;;;;6.67;5.67;;;;;;;;2065301;27;2748177;-79
2023/07/03 05:28:49;;;;;;;;;4.40;4.40;;;;;;;;2059761;27;2741935;-78
2023/07/03 05:30:00;;;;;;;;;3.67;3.00;;;;;;;;2011315;27;2751337;-79
2023/07/03 05:31:11;;;;;;;;;8.33;4.33;;;;;;;;2053540;27;2746126;-80
2023/07/03 05:32:22;;;;;;;;;6.33;4.00;;;;;;;;2059050;27;2735706;-80
2023/07/03 05:33:32;;;;;;;;;6.33;6.33;;;;;;;;2061025;27;2746256;-80
2023/07/03 05:34:43;;;;;;;;;7.00;5.33;;;;;;;;2057021;27;2740915;-79
2023/07/03 05:35:54;;;;;;;;;4.00;3.00;;;;;;;;2034544;27;2746118;-80
2023/07/03 05:37:06;;;;;;;;;6.75;5.25;;;;;;;;2069026;27;1814885;-81
2023/07/03 05:38:18;;;;;;;;;4.50;4.50;;;;;;;;2056050;27;1808650;-81
2023/07/03 05:39:31;;;;;;;;;6.67;5.00;;;;;;;;2068714;27;2742961;-79
2023/07/03 05:40:41;;;;;;;;;5.67;5.33;;;;;;;;2007562;27;2745117;-80
2023/07/03 05:41:52;;;;;;;;;5.33;5.33;;;;;;;;2056484;27;2745227;-78
2023/07/03 05:43:03;;;;;;;;;4.00;4.00;;;;;;;;2061712;27;2748225;-78
2023/07/03 05:44:14;;;;;;;;;6.33;4.33;;;;;;;;2052676;27;2752393;-78
2023/07/03 05:45:25;;;;;;;;;5.00;4.00;;;;;;;;2053920;27;3462836;-78
2023/07/03 05:46:35;;;;;;;;;7.00;3.67;;;;;;;;2075278;27;1819075;-78
2023/07/03 05:47:46;;;;;;;;;4.33;4.33;;;;;;;;2031623;27;2750387;-78
2023/07/03 05:48:57;;;;;;;;;5.00;4.33;;;;;;;;2040761;27;3466891;-78
2023/07/03 05:50:08;;;;;;;;;4.00;3.00;;;;;;;;2056549;27;2736763;-78
2023/07/03 05:51:18;;;;;;;;;6.00;5.33;;;;;;;;2042388;27;2754885;-78
2023/07/03 05:52:29;;;;;;;;;4.67;4.67;;;;;;;;2062095;27;2750423;-78
2023/07/03 05:53:40;;;;;;;;;4.67;4.67;;;;;;;;2044792;27;3465837;-78
2023/07/03 05:54:51;;;;;;;;;2.33;2.33;;;;;;;;2055971;27;3459968;-78
2023/07/03 05:56:02;;;;;;;;;5.67;4.00;;;;;;;;2063239;27;2748194;-78
2023/07/03 05:57:13;;;;;;;;;4.67;3.00;;;;;;;;2043807;27;3462748;-80
2023/07/03 05:58:25;;;;;;;;;4.33;4.33;;;;;;;;2034315;27;3460657;-80
2023/07/03 05:59:36;;;;;;;;;3.67;3.67;;;;;;;;2041427;27;2752350;-79
2023/07/03 06:00:46;;;;;;;;;5.00;4.67;;;;;;;;2034241;27;2745100;-79
2023/07/03 06:01:57;;;;;;;;;7.00;5.33;;;;;;;;2035320;27;2751738;-77
2023/07/03 06:03:11;;;;;;;;;4.67;4.00;;;;;;;;2064435;27;2746648;-78
2023/07/03 06:04:22;;;;;;;;;5.00;4.00;;;;;;;;2034340;27;2746114;-79
2023/07/03 06:05:32;;;;;;;;;3.67;3.00;;;;;;;;2034594;27;2739858;-79
2023/07/03 06:06:44;;;;;;;;;4.33;3.00;;;;;;;;2060929;27;2750389;-81
2023/07/03 06:07:54;;;;;;;;;4.33;4.33;;;;;;;;2048261;27;2752371;-79
2023/07/03 06:09:05;;;;;;;;;5.00;5.00;;;;;;;;2053935;27;2752441;-79
2023/07/03 06:10:16;;;;;;;;;3.67;3.00;;;;;;;;2065485;27;2738297;-79
2023/07/03 06:11:26;;;;;;;;;5.33;3.00;;;;;;;;2044231;27;2742030;-79
2023/07/03 06:12:37;;;;;;;;;6.00;4.67;;;;;;;;2063897;27;2745064;-77
2023/07/03 06:13:48;;;;;;;;;3.67;2.33;;;;;;;;2050142;27;2749271;-77
2023/07/03 06:15:00;;;;;;;;;6.00;2.00;;;;;;;;2039488;28;2746107;-77
2023/07/03 06:16:10;;;;;;;;;3.00;3.00;;;;;;;;2033490;27;2744003;-77
2023/07/03 06:17:22;;;;;;;;;3.33;3.33;;;;;;;;2055145;27;2752504;-78
2023/07/03 06:18:32;;;;;;;;;4.33;4.33;;;;;;;;2033256;27;2739953;-77
2023/07/03 06:19:43;;;;;;;;;4.00;4.00;;;;;;;;2066029;27;1815314;-77
2023/07/03 06:20:54;;;;;;;;;8.67;4.00;;;;;;;;2042744;27;2753449;-77
2023/07/03 06:22:05;;;;;;;;;4.00;1.00;;;;;;;;2068160;27;2744038;-77
2023/07/03 06:23:15;;;;;;;;;4.00;3.00;;;;;;;;2021161;27;2742008;-77
2023/07/03 06:24:26;;;;;;;;;3.33;3.00;;;;;;;;2048653;27;2746110;-77
2023/07/03 06:25:37;;;;;;;;;4.00;3.00;;;;;;;;2052513;27;2741272;-77
2023/07/03 06:26:48;;;;;;;;;4.33;4.00;;;;;;;;2068193;27;2739854;-78
2023/07/03 06:27:58;;;;;;;;;5.33;5.33;;;;;;;;2037383;27;3459666;-78
2023/07/03 06:29:10;;;;;;;;;3.67;3.67;;;;;;;;2051990;27;2748170;-78
2023/07/03 06:30:20;;;;;;;;;6.00;4.33;;;;;;;;2035436;27;3467913;-79
2023/07/03 06:31:31;;;;;;;;;6.33;5.67;;;;;;;;2047921;27;2746098;-78
2023/07/03 06:32:42;;;;;;;;;4.33;3.00;;;;;;;;2052447;27;2736708;-78
2023/07/03 06:33:53;;;;;;;;;4.00;4.00;;;;;;;;2055352;27;2747274;-77
2023/07/03 06:35:04;;;;;;;;;3.67;2.33;;;;;;;;2063558;27;2742983;-78
2023/07/03 06:36:21;;;;;;;;;5.17;4.33;;;;;;;;2065161;27;2744023;-78
2023/07/03 06:37:31;;;;;;;;;3.67;3.67;;;;;;;;2018263;27;2754494;-79
2023/07/03 06:38:42;;;;;;;;;4.67;3.33;;;;;;;;2054237;27;2738143;-78
2023/07/03 06:39:53;;;;;;;;;5.67;5.33;;;;;;;;2047355;27;3461722;-78
2023/07/03 06:41:04;;;;;;;;;7.00;4.67;;;;;;;;2053914;27;2751378;-78
2023/07/03 06:42:14;;;;;;;;;7.67;4.67;;;;;;;;2050211;27;2752442;-78
2023/07/03 06:43:25;;;;;;;;;7.33;4.00;;;;;;;;2051281;27;2754540;-78
2023/07/03 06:44:36;;;;;;;;;10.00;7.00;;;;;;;;2048061;27;3476297;-78
2023/07/03 06:45:48;;;;;;;;;8.50;6.00;;;;;;;;2048221;27;2730478;-78
2023/07/03 06:47:01;;;;;;;;;5.17;2.67;;;;;;;;2052260;27;2754432;-78
2023/07/03 06:48:13;;;;;;;;;8.25;4.25;;;;;;;;2011092;27;1824719;-78
2023/07/03 06:49:24;;;;;;;;;6.67;3.67;;;;;;;;2026587;27;2748186;-78
2023/07/03 06:50:35;;;;;;;;;3.67;3.67;;;;;;;;2027124;27;2750799;-78
2023/07/03 06:51:48;;;;;;;;;5.40;5.40;;;;;;;;2054139;27;2739861;-78
2023/07/03 06:52:58;;;;;;;;;8.00;4.00;;;;;;;;2034452;27;2749263;-78
2023/07/03 06:54:09;;;;;;;;;5.00;3.33;;;;;;;;2058403;27;2733630;-78
2023/07/03 06:55:20;;;;;;;;;4.67;3.33;;;;;;;;2055505;27;2743087;-78
2023/07/03 06:56:30;;;;;;;;;4.00;3.00;;;;;;;;2030483;27;2735678;-78
2023/07/03 06:57:41;;;;;;;;;4.00;4.00;;;;;;;;2061389;27;2744063;-78